createdAt,value
2022-08-18T00:01:47.602Z,11.88
2022-08-18T00:04:34.840Z,9.98
2022-08-18T00:07:06.241Z,10.30
2022-08-18T00:09:36.620Z,11.18
2022-08-18T00:12:10.173Z,10.50
2022-08-18T00:14:38.577Z,10.27
2022-08-18T00:17:08.202Z,9.57
2022-08-18T00:19:45.616Z,10.45
2022-08-18T00:22:18.089Z,10.30
2022-08-18T00:24:50.847Z,10.10
2022-08-18T00:27:23.362Z,10.50
2022-08-18T00:29:53.730Z,11.23
2022-08-18T00:32:25.496Z,10.10
2022-08-18T00:34:54.819Z,11.18
2022-08-18T00:37:25.162Z,11.10
2022-08-18T00:39:54.183Z,11.38
2022-08-18T00:42:29.072Z,11.25
2022-08-18T00:45:01.422Z,10.90
2022-08-18T00:47:36.448Z,11.25
2022-08-18T00:50:16.431Z,10.25
2022-08-18T00:52:52.526Z,11.93
2022-08-18T00:55:22.675Z,10.63
2022-08-18T00:57:53.752Z,10.60
2022-08-18T01:00:22.987Z,10.60
2022-08-18T01:02:56.993Z,10.65
2022-08-18T01:05:33.996Z,11.43
2022-08-18T01:08:03.149Z,10.48
2022-08-18T01:10:35.336Z,10.13
2022-08-18T01:13:04.337Z,10.35
2022-08-18T01:15:33.241Z,11.43
2022-08-18T01:18:23.714Z,12.13
2022-08-18T01:21:18.246Z,10.80
2022-08-18T01:23:49.662Z,11.10
2022-08-18T01:26:19.817Z,11.27
2022-08-18T01:28:49.682Z,11.80
2022-08-18T01:31:38.018Z,11.95
2022-08-18T01:34:07.515Z,11.35
2022-08-18T01:36:38.091Z,11.75
2022-08-18T01:39:09.857Z,12.27
2022-08-18T01:41:38.555Z,12.02
2022-08-18T01:44:11.700Z,11.90
2022-08-18T01:46:42.896Z,11.65
2022-08-18T01:49:13.375Z,11.90
2022-08-18T01:51:42.719Z,11.90
2022-08-18T01:54:14.977Z,12.50
2022-08-18T01:56:44.072Z,12.70
2022-08-18T01:59:14.106Z,12.95
2022-08-18T02:01:50.642Z,12.93
2022-08-18T02:04:40.575Z,13.60
2022-08-18T02:07:11.726Z,13.70
2022-08-18T02:09:43.289Z,13.98
2022-08-18T02:12:12.274Z,15.05
2022-08-18T02:14:41.422Z,14.38
2022-08-18T02:17:12.107Z,13.32
2022-08-18T02:19:44.492Z,13.80
2022-08-18T02:22:14.614Z,14.00
2022-08-18T02:24:45.330Z,12.88
2022-08-18T02:27:15.806Z,13.68
2022-08-18T02:29:44.096Z,13.30
2022-08-18T02:32:12.474Z,14.48
2022-08-18T02:34:42.827Z,13.40
2022-08-18T02:37:15.122Z,14.25
2022-08-18T02:39:45.768Z,15.98
2022-08-18T02:42:16.331Z,15.10
2022-08-18T02:44:45.531Z,14.68
2022-08-18T02:47:13.800Z,14.85
2022-08-18T02:49:42.071Z,14.82
2022-08-18T02:52:10.630Z,14.57
2022-08-18T02:54:39.395Z,15.77
2022-08-18T02:57:10.662Z,15.13
2022-08-18T02:59:41.265Z,15.57
2022-08-18T03:02:10.376Z,15.02
2022-08-18T03:04:38.715Z,14.95
2022-08-18T03:07:08.630Z,14.32
2022-08-18T03:09:37.014Z,14.70
2022-08-18T03:12:07.307Z,14.68
2022-08-18T03:14:37.689Z,14.80
2022-08-18T03:17:08.616Z,15.15
2022-08-18T03:19:37.776Z,15.40
2022-08-18T03:22:08.863Z,15.80
2022-08-18T03:24:56.457Z,15.52
2022-08-18T03:27:24.950Z,15.65
2022-08-18T03:29:54.582Z,15.30
2022-08-18T03:32:23.105Z,15.23
2022-08-18T03:34:51.404Z,15.25
2022-08-18T03:37:19.580Z,15.50
2022-08-18T03:39:51.691Z,14.93
2022-08-18T03:42:19.987Z,14.88
2022-08-18T03:44:48.206Z,15.18
2022-08-18T03:47:18.163Z,16.25
2022-08-18T03:49:46.852Z,16.02
2022-08-18T03:52:15.051Z,15.80
2022-08-18T03:54:43.440Z,15.30
2022-08-18T03:57:12.699Z,15.52
2022-08-18T03:59:43.569Z,15.93
2022-08-18T04:02:12.999Z,15.77
2022-08-18T04:04:42.888Z,16.00
2022-08-18T04:07:14.359Z,16.30
2022-08-18T04:09:43.108Z,16.38
2022-08-18T04:12:15.312Z,16.08
2022-08-18T04:14:48.073Z,16.70
2022-08-18T04:17:17.509Z,15.65
2022-08-18T04:19:47.260Z,17.15
2022-08-18T04:22:17.457Z,16.70
2022-08-18T04:24:47.391Z,15.43
2022-08-18T04:27:18.895Z,16.80
2022-08-18T04:29:47.987Z,17.10
2022-08-18T04:32:16.228Z,16.30
2022-08-18T04:34:44.469Z,16.38
2022-08-18T04:37:15.411Z,15.15
2022-08-18T04:39:44.100Z,17.08
2022-08-18T04:42:12.731Z,16.55
2022-08-18T04:44:41.227Z,17.30
2022-08-18T04:47:10.090Z,17.17
2022-08-18T04:49:39.071Z,16.02
2022-08-18T04:52:39.827Z,17.48
2022-08-18T04:55:12.063Z,16.23
2022-08-18T04:57:42.634Z,16.52
2022-08-18T05:00:13.348Z,16.40
2022-08-18T05:02:41.927Z,16.02
2022-08-18T05:05:11.166Z,16.83
2022-08-18T05:07:45.759Z,18.80
2022-08-18T05:10:17.845Z,16.65
2022-08-18T05:12:48.336Z,17.45
2022-08-18T05:15:17.722Z,18.02
2022-08-18T05:17:49.334Z,19.25
2022-08-18T05:20:20.649Z,18.45
2022-08-18T05:22:49.560Z,18.48
2022-08-18T05:25:19.237Z,19.45
2022-08-18T05:27:47.799Z,19.35
2022-08-18T05:30:16.738Z,18.80
2022-08-18T05:32:50.074Z,18.83
2022-08-18T05:35:24.602Z,18.67
2022-08-18T05:38:16.081Z,18.52
2022-08-18T05:40:47.185Z,18.45
2022-08-18T05:43:17.373Z,18.48
2022-08-18T05:45:45.909Z,19.02
2022-08-18T05:48:15.487Z,17.63
2022-08-18T05:50:44.041Z,18.92
2022-08-18T05:53:16.157Z,18.42
2022-08-18T05:56:07.286Z,17.67
2022-08-18T05:58:41.506Z,19.17
2022-08-18T06:01:16.189Z,19.58
2022-08-18T06:03:49.384Z,18.75
2022-08-18T06:06:21.498Z,18.58
2022-08-18T06:08:55.016Z,19.38
2022-08-18T06:11:25.819Z,18.35
2022-08-18T06:13:59.398Z,18.33
2022-08-18T06:16:48.897Z,18.05
2022-08-18T06:19:29.636Z,18.83
2022-08-18T06:22:07.692Z,19.15
2022-08-18T06:24:42.921Z,18.65
2022-08-18T06:27:21.158Z,18.00
2022-08-18T06:30:04.227Z,18.08
2022-08-18T06:32:46.946Z,18.25
2022-08-18T06:35:25.795Z,19.08
2022-08-18T06:38:22.628Z,19.42
2022-08-18T06:41:01.426Z,17.88
2022-08-18T06:43:34.325Z,17.83
2022-08-18T06:46:08.222Z,16.63
2022-08-18T06:48:44.074Z,16.55
2022-08-18T06:51:19.841Z,16.35
2022-08-18T06:54:00.213Z,19.00
2022-08-18T06:56:35.816Z,16.65
2022-08-18T06:59:19.176Z,16.42
2022-08-18T07:01:52.240Z,17.17
2022-08-18T07:04:39.449Z,17.13
2022-08-18T07:07:17.505Z,15.82
2022-08-18T07:09:46.380Z,17.20
2022-08-18T07:12:22.166Z,16.40
2022-08-18T07:14:54.387Z,19.25
2022-08-18T07:17:42.728Z,18.65
2022-08-18T07:20:22.380Z,17.65
2022-08-18T07:22:59.802Z,18.27
2022-08-18T07:25:32.025Z,19.00
2022-08-18T07:28:02.619Z,17.17
2022-08-18T07:30:36.076Z,18.35
2022-08-18T07:33:15.137Z,15.90
2022-08-18T07:35:49.585Z,16.20
2022-08-18T07:38:43.565Z,15.65
2022-08-18T07:41:18.056Z,16.27
2022-08-18T07:44:01.014Z,15.65
2022-08-18T07:46:37.173Z,15.80
2022-08-18T07:49:07.013Z,16.33
2022-08-18T07:51:47.720Z,16.65
2022-08-18T07:54:52.263Z,15.48
2022-08-18T07:57:31.108Z,16.10
2022-08-18T08:00:20.597Z,16.17
2022-08-18T08:03:07.928Z,15.20
2022-08-18T08:05:43.474Z,16.15
2022-08-18T08:08:24.983Z,15.25
2022-08-18T08:11:08.245Z,15.15
2022-08-18T08:13:55.847Z,14.68
2022-08-18T08:16:33.309Z,14.93
2022-08-18T08:19:13.933Z,16.35
2022-08-18T08:21:52.652Z,15.18
2022-08-18T08:24:31.267Z,15.40
2022-08-18T08:27:10.921Z,15.50
2022-08-18T08:29:44.818Z,15.10
2022-08-18T08:32:20.414Z,14.98
2022-08-18T08:34:55.106Z,14.98
2022-08-18T08:37:46.200Z,14.77
2022-08-18T08:40:19.279Z,14.07
2022-08-18T08:42:52.995Z,15.63
2022-08-18T08:45:26.033Z,14.95
2022-08-18T08:48:08.738Z,14.05
2022-08-18T08:50:46.207Z,13.65
2022-08-18T08:53:24.440Z,13.95
2022-08-18T08:56:02.251Z,13.30
2022-08-18T08:58:38.598Z,13.32
2022-08-18T09:01:11.551Z,12.90
2022-08-18T09:03:48.103Z,14.15
2022-08-18T09:06:27.753Z,13.88
2022-08-18T09:09:16.118Z,12.68
2022-08-18T09:12:18.814Z,14.25
2022-08-18T09:15:04.574Z,13.90
2022-08-18T09:18:04.837Z,12.43
2022-08-18T09:20:52.130Z,11.38
2022-08-18T09:23:25.955Z,12.90
2022-08-18T09:25:56.780Z,11.43
2022-08-18T09:28:45.711Z,10.23
2022-08-18T09:31:19.975Z,9.77
2022-08-18T09:34:15.505Z,13.20
2022-08-18T09:37:00.883Z,10.23
2022-08-18T09:39:54.694Z,11.90
2022-08-18T09:42:49.856Z,10.98
2022-08-18T09:45:42.432Z,10.13
2022-08-18T09:48:29.231Z,10.55
2022-08-18T09:51:18.231Z,10.45
2022-08-18T09:54:14.521Z,11.70
2022-08-18T09:57:21.890Z,12.85
2022-08-18T10:00:33.585Z,13.23
2022-08-18T10:03:12.108Z,12.55
2022-08-18T10:05:56.056Z,10.32
2022-08-18T10:09:01.209Z,13.07
2022-08-18T10:11:44.799Z,12.55
2022-08-18T10:14:41.311Z,12.77
2022-08-18T10:17:24.758Z,11.18
2022-08-18T10:20:02.161Z,12.32
2022-08-18T10:22:43.540Z,11.23
2022-08-18T10:25:22.586Z,12.45
2022-08-18T10:27:56.555Z,11.30
2022-08-18T10:31:13.614Z,11.85
2022-08-18T10:34:16.629Z,11.48
2022-08-18T10:36:58.879Z,11.50
2022-08-18T10:39:45.171Z,11.30
2022-08-18T10:42:19.299Z,11.68
2022-08-18T10:44:50.730Z,11.48
2022-08-18T10:47:25.126Z,12.43
2022-08-18T10:50:09.760Z,10.25
2022-08-18T10:53:35.401Z,10.80
2022-08-18T10:56:01.301Z,11.18
2022-08-18T10:58:58.278Z,9.77
2022-08-18T11:01:52.715Z,11.35
2022-08-18T11:04:34.725Z,11.60
2022-08-18T11:07:14.513Z,9.15
2022-08-18T11:13:04.424Z,12.02
2022-08-18T11:15:54.734Z,11.52
2022-08-18T11:18:42.554Z,11.45
2022-08-18T11:21:25.273Z,10.98
2022-08-18T11:24:07.985Z,9.23
2022-08-18T11:26:40.725Z,8.98
2022-08-18T11:29:25.258Z,9.63
2022-08-18T11:31:59.614Z,10.55
2022-08-18T11:34:36.161Z,10.38
2022-08-18T11:37:08.968Z,10.50
2022-08-18T11:39:50.485Z,10.65
2022-08-18T11:42:22.092Z,8.73
2022-08-18T11:44:56.260Z,9.30
2022-08-18T11:47:27.502Z,9.30
2022-08-18T11:50:14.666Z,9.30
2022-08-18T11:52:53.772Z,10.27
2022-08-18T11:55:48.145Z,9.95
2022-08-18T11:58:39.660Z,9.40
2022-08-18T12:01:10.735Z,8.82
2022-08-18T12:03:43.305Z,8.88
2022-08-18T12:06:19.924Z,8.95
2022-08-18T12:08:57.090Z,9.05
2022-08-18T12:11:31.249Z,8.85
2022-08-18T12:14:31.724Z,9.18
2022-08-18T12:16:54.187Z,13.35
2022-08-18T12:19:24.469Z,9.18
2022-08-18T12:21:56.637Z,8.57
2022-08-18T12:24:34.487Z,7.93
2022-08-18T12:27:20.693Z,8.57
2022-08-18T12:29:50.863Z,9.00
2022-08-18T12:32:48.729Z,9.75
2022-08-18T12:35:12.250Z,8.80
2022-08-18T12:38:05.152Z,8.55
2022-08-18T12:40:33.459Z,8.25
2022-08-18T12:43:03.372Z,8.68
2022-08-18T12:45:34.381Z,8.25
2022-08-18T12:48:06.781Z,8.00
2022-08-18T12:50:49.983Z,9.55
2022-08-18T12:53:29.407Z,8.25
2022-08-18T12:56:07.318Z,8.10
2022-08-18T12:58:40.604Z,8.63
2022-08-18T13:01:09.032Z,7.93
2022-08-18T13:03:42.554Z,8.15
2022-08-18T13:06:11.537Z,8.45
2022-08-18T13:08:48.117Z,8.18
2022-08-18T13:11:23.463Z,8.35
2022-08-18T13:13:57.116Z,8.35
2022-08-18T13:16:38.623Z,7.72
2022-08-18T13:19:15.855Z,7.38
2022-08-18T13:21:44.390Z,8.15
2022-08-18T13:24:13.297Z,8.10
2022-08-18T13:26:47.694Z,9.00
2022-08-18T13:29:19.340Z,9.40
2022-08-18T13:31:56.098Z,8.50
2022-08-18T13:34:27.535Z,8.75
2022-08-18T13:36:58.918Z,9.77
2022-08-18T13:39:34.186Z,9.80
2022-08-18T13:42:26.111Z,9.38
2022-08-18T13:44:55.058Z,9.75
2022-08-18T13:47:29.161Z,10.10
2022-08-18T13:49:59.869Z,10.30
2022-08-18T13:52:36.214Z,9.45
2022-08-18T13:55:13.699Z,8.77
2022-08-18T13:57:48.287Z,9.70
2022-08-18T14:00:29.866Z,8.80
2022-08-18T14:03:03.337Z,9.93
2022-08-18T14:05:36.462Z,10.00
2022-08-18T14:08:21.670Z,8.88
2022-08-18T14:10:54.727Z,9.80
2022-08-18T14:13:25.070Z,9.85
2022-08-18T14:15:56.923Z,9.30
2022-08-18T14:18:28.666Z,9.88
2022-08-18T14:21:23.064Z,9.18
2022-08-18T14:24:10.634Z,9.95
2022-08-18T14:26:50.334Z,10.65
2022-08-18T14:29:42.953Z,9.40
2022-08-18T14:32:11.912Z,9.55
2022-08-18T14:34:50.853Z,9.45
2022-08-18T14:37:20.011Z,9.73
2022-08-18T14:39:50.193Z,9.90
2022-08-18T14:42:41.338Z,9.55
2022-08-18T14:45:17.528Z,9.57
2022-08-18T14:47:57.907Z,9.68
2022-08-18T14:50:26.753Z,9.43
2022-08-18T14:52:55.109Z,7.80
2022-08-18T14:55:24.173Z,8.85
2022-08-18T14:57:53.377Z,8.55
2022-08-18T15:00:22.939Z,8.88
2022-08-18T15:02:52.726Z,9.02
2022-08-18T15:05:24.729Z,8.88
2022-08-18T15:07:53.968Z,8.77
2022-08-18T15:10:23.587Z,8.55
2022-08-18T15:12:57.802Z,9.07
2022-08-18T15:15:26.588Z,8.20
2022-08-18T15:18:11.244Z,9.02
2022-08-18T15:20:57.210Z,8.77
2022-08-18T15:23:43.129Z,7.72
2022-08-18T15:26:12.822Z,7.53
2022-08-18T15:28:42.017Z,8.38
2022-08-18T15:31:17.077Z,8.50
2022-08-18T15:33:50.116Z,8.05
2022-08-18T15:36:23.990Z,7.78
2022-08-18T15:38:58.028Z,7.55
2022-08-18T15:41:32.734Z,7.80
2022-08-18T15:44:03.560Z,6.93
2022-08-18T15:46:34.815Z,7.75
2022-08-18T15:49:05.403Z,7.25
2022-08-18T15:51:41.254Z,7.47
2022-08-18T15:54:11.405Z,7.70
2022-08-18T15:56:43.237Z,8.32
2022-08-18T15:59:12.746Z,7.57
2022-08-18T16:01:43.077Z,7.60
2022-08-18T16:04:15.327Z,6.72
2022-08-18T16:06:47.796Z,7.82
2022-08-18T16:09:17.737Z,8.35
2022-08-18T16:11:46.371Z,8.38
2022-08-18T16:14:15.406Z,8.07
2022-08-18T16:16:43.874Z,8.32
2022-08-18T16:19:12.677Z,8.27
2022-08-18T16:21:41.060Z,8.65
2022-08-18T16:24:10.750Z,8.95
2022-08-18T16:26:39.206Z,8.65
2022-08-18T16:29:07.730Z,8.23
2022-08-18T16:31:36.336Z,8.23
2022-08-18T16:34:05.854Z,8.70
2022-08-18T16:36:34.836Z,9.00
2022-08-18T16:39:03.033Z,8.40
2022-08-18T16:41:33.391Z,8.77
2022-08-18T16:44:02.202Z,9.25
2022-08-18T16:46:30.572Z,9.30
2022-08-18T16:48:59.904Z,10.00
2022-08-18T16:51:29.427Z,8.60
2022-08-18T16:53:58.685Z,8.75
2022-08-18T16:56:30.529Z,10.95
2022-08-18T16:59:17.354Z,9.50
2022-08-18T17:02:03.259Z,8.45
2022-08-18T17:04:34.235Z,8.70
2022-08-18T17:07:04.663Z,9.30
2022-08-18T17:09:34.283Z,8.88
2022-08-18T17:12:03.191Z,8.10
2022-08-18T17:14:33.275Z,8.23
2022-08-18T17:17:02.028Z,9.30
2022-08-18T17:19:34.216Z,8.95
2022-08-18T17:22:03.456Z,8.50
2022-08-18T17:24:32.699Z,9.23
2022-08-18T17:27:24.181Z,8.75
2022-08-18T17:30:07.108Z,8.70
2022-08-18T17:32:42.638Z,9.23
2022-08-18T17:35:17.745Z,8.90
2022-08-18T17:37:52.133Z,9.15
2022-08-18T17:40:28.766Z,9.13
2022-08-18T17:42:59.808Z,9.50
2022-08-18T17:45:35.973Z,9.50
2022-08-18T17:48:09.473Z,8.90
2022-08-18T17:51:00.252Z,9.65
2022-08-18T17:53:31.465Z,9.88
2022-08-18T17:56:08.529Z,10.13
2022-08-18T17:58:40.672Z,9.30
2022-08-18T18:01:13.241Z,9.65
2022-08-18T18:03:41.541Z,9.32
2022-08-18T18:06:15.087Z,9.10
2022-08-18T18:08:56.526Z,9.30
2022-08-18T18:11:32.131Z,9.13
2022-08-18T18:14:01.995Z,8.48
2022-08-18T18:16:35.392Z,9.52
2022-08-18T18:19:07.376Z,10.18
2022-08-18T18:22:00.183Z,9.20
2022-08-18T18:24:32.658Z,9.27
2022-08-18T18:27:01.644Z,10.43
2022-08-18T18:29:37.959Z,10.90
2022-08-18T18:32:25.387Z,9.88
2022-08-18T18:35:15.140Z,9.20
2022-08-18T18:37:52.327Z,9.38
2022-08-18T18:40:31.384Z,9.63
2022-08-18T18:43:19.728Z,9.73
2022-08-18T18:46:07.475Z,9.50
2022-08-18T18:48:52.137Z,10.05
2022-08-18T18:51:33.712Z,10.05
2022-08-18T18:54:17.684Z,10.25
2022-08-18T18:56:51.602Z,9.85
2022-08-18T18:59:42.999Z,10.05
2022-08-18T19:02:33.466Z,10.35
2022-08-18T19:05:14.261Z,10.60
2022-08-18T19:07:54.442Z,10.50
2022-08-18T19:10:30.055Z,10.50
2022-08-18T19:13:02.121Z,10.15
2022-08-18T19:15:35.368Z,10.70
2022-08-18T19:18:22.252Z,10.30
2022-08-18T19:22:02.635Z,11.27
2022-08-18T19:23:47.424Z,11.18
2022-08-18T19:26:22.701Z,10.60
2022-08-18T19:29:12.613Z,10.13
2022-08-18T19:31:48.575Z,9.82
2022-08-18T19:34:22.668Z,10.30
2022-08-18T19:37:02.352Z,10.45
2022-08-18T19:39:43.459Z,10.30
2022-08-18T19:42:19.415Z,10.45
2022-08-18T19:45:13.419Z,10.02
2022-08-18T19:47:49.074Z,10.63
2022-08-18T19:50:25.899Z,12.63
2022-08-18T19:53:28.100Z,11.63
2022-08-18T19:56:21.675Z,10.48
2022-08-18T19:59:19.417Z,10.75
2022-08-18T20:02:02.566Z,9.50
2022-08-18T20:04:52.559Z,10.68
2022-08-18T20:07:52.039Z,10.07
2022-08-18T20:10:58.526Z,10.13
2022-08-18T20:13:33.656Z,10.15
2022-08-18T20:16:15.648Z,9.85
2022-08-18T20:18:46.731Z,10.18
2022-08-18T20:21:46.456Z,10.75
2022-08-18T20:24:35.283Z,10.52
2022-08-18T20:27:35.185Z,10.38
2022-08-18T20:30:26.671Z,10.05
2022-08-18T20:33:18.148Z,9.77
2022-08-18T20:36:00.256Z,9.63
2022-08-18T20:38:34.738Z,9.93
2022-08-18T20:41:31.611Z,10.20
2022-08-18T20:44:29.316Z,9.73
2022-08-18T20:47:25.272Z,10.13
2022-08-18T20:50:10.553Z,10.13
2022-08-18T20:52:43.345Z,9.63
2022-08-18T20:55:17.887Z,10.18
2022-08-18T20:57:47.177Z,10.00
2022-08-18T21:00:26.868Z,10.43
2022-08-18T21:02:57.531Z,10.23
2022-08-18T21:05:28.595Z,9.90
2022-08-18T21:08:13.444Z,9.27
2022-08-18T21:10:49.635Z,10.15
2022-08-18T21:13:30.373Z,10.18
2022-08-18T21:16:00.657Z,10.95
2022-08-18T21:18:29.216Z,11.00
2022-08-18T21:21:00.373Z,10.63
2022-08-18T21:23:33.579Z,9.82
2022-08-18T21:26:09.765Z,10.60
2022-08-18T21:28:40.900Z,10.27
2022-08-18T21:31:42.964Z,10.18
2022-08-18T21:34:18.355Z,11.32
2022-08-18T21:36:53.480Z,10.75
2022-08-18T21:39:23.216Z,11.35
2022-08-18T21:41:54.346Z,11.52
2022-08-18T21:44:25.359Z,10.20
2022-08-18T21:47:05.575Z,11.05
2022-08-18T21:49:34.859Z,11.73
2022-08-18T21:52:03.254Z,10.57
2022-08-18T21:54:34.764Z,9.52
2022-08-18T21:57:21.104Z,10.55
2022-08-18T22:00:12.621Z,10.57
2022-08-18T22:02:42.637Z,10.48
2022-08-18T22:05:13.175Z,11.30
2022-08-18T22:07:48.961Z,9.70
2022-08-18T22:10:54.707Z,10.52
2022-08-18T22:13:42.939Z,11.90
2022-08-18T22:16:30.489Z,9.85
2022-08-18T22:19:22.206Z,11.30
2022-08-18T22:21:57.692Z,11.93
2022-08-18T22:24:30.346Z,11.38
2022-08-18T22:27:09.538Z,11.40
2022-08-18T22:29:45.745Z,9.82
2022-08-18T22:32:14.811Z,11.77
2022-08-18T22:34:44.629Z,11.23
2022-08-18T22:37:15.446Z,10.98
2022-08-18T22:39:52.561Z,10.10
2022-08-18T22:42:22.503Z,10.38
2022-08-18T22:44:50.968Z,11.30
2022-08-18T22:47:20.014Z,11.05
2022-08-18T22:49:49.586Z,10.95
2022-08-18T22:52:30.042Z,10.70
2022-08-18T22:55:00.617Z,10.02
2022-08-18T22:57:34.458Z,10.82
2022-08-18T23:00:07.651Z,11.80
2022-08-18T23:02:38.753Z,10.57
2022-08-18T23:05:09.265Z,11.25
2022-08-18T23:07:37.885Z,10.80
2022-08-18T23:10:08.143Z,10.57
2022-08-18T23:12:42.626Z,11.15
2022-08-18T23:15:12.154Z,10.35
2022-08-18T23:17:41.235Z,10.15
2022-08-18T23:20:18.268Z,11.18
2022-08-18T23:22:47.633Z,10.85
2022-08-18T23:25:16.710Z,10.90
2022-08-18T23:27:45.008Z,9.98
2022-08-18T23:30:14.030Z,11.55
2022-08-18T23:32:42.936Z,10.40
2022-08-18T23:35:12.486Z,9.93
2022-08-18T23:37:41.575Z,11.55
2022-08-18T23:40:13.285Z,10.00
2022-08-18T23:42:41.777Z,9.77
2022-08-18T23:45:11.113Z,10.93
2022-08-18T23:47:40.082Z,11.20
2022-08-18T23:50:09.165Z,10.18
2022-08-18T23:52:38.840Z,11.00
2022-08-18T23:55:08.469Z,12.35
2022-08-18T23:57:37.538Z,11.07
